Caro, Michigan
Current Conditions -  °F | °C
As of 5:14 AM on Tuesday 27 Jan 2015 (Local Time) from KCFS Reporting Station
Clear Clear  
Wind Chill:   Ceiling: Unl
Heat Index:   Visibility: 10mi
Dew Point:   Wind: 0mph
Humidity: 82%   Direction: NA
Pressure: 30.03"   Gusts: NA
Location:  43.49°N, 83.4°W
Report Text: KCFS 271014Z AUTO 00000KT 10SM CLR M13/M16 A3003 RMK AO2 T11351160
Loading
Personal Weather Stations






























Interactive Weather Map New forecast layout! Learn more

10-Day Weather Forecast

Advertisements
Track Severe Weather on mobile